Alvin, Wisconsin
Current Conditions -  °F | °C
As of 12:55 PM on Thursday 30 Oct 2014 (Local Time) from KEGV Reporting Station
Overcast Overcast  
Wind Chill: 33°   Ceiling: 1800
Heat Index: 39°   Visibility: 10mi
Dew Point: 30°   Wind: 9mph
Humidity: 71%   Direction: 300°WNW
Pressure: 30.02"   Gusts: NA
Location:  45.9186°N, 88.7601°W
Report Text: KEGV 301755Z AUTO 30008KT 10SM OVC018 04/M01 A3002 RMK AO2 T00391009 10040 20020
Loading
Personal Weather Stations






























Interactive Weather Map
Tropical Storm Tracking
New forecast layout! Learn more

10-Day Weather Forecast

Advertisements
Track Severe Weather on mobile